Time;durP1;ratioP1;P1;durP2;ratioP2;P2;SDS_P1;SDS_P2;PMS_P1;PMS_P2;Temp;Humidity;BMP_temperature;BMP_pressure;BME280_temperature;BME280_humidity;BME280_pressure;Samples;Min_cycle;Max_cycle;Signal;HPM_P1;HPM_P2
2023/07/07 00:01:59;;;;;;;6.53;2.07;;;;;;;;;;5033105;28;20530;-49
2023/07/07 00:04:26;;;;;;;3.63;2.10;;;;;;;;;;5033790;28;20545;-50
2023/07/07 00:06:55;;;;;;;4.27;1.80;;;;;;;;;;5033247;28;20549;-49
2023/07/07 00:09:24;;;;;;;3.20;1.50;;;;;;;;;;5033420;28;20537;-49
2023/07/07 00:11:51;;;;;;;2.67;1.37;;;;;;;;;;5032179;28;20453;-49
2023/07/07 00:14:19;;;;;;;3.93;2.33;;;;;;;;;;5033403;28;20473;-50
2023/07/07 00:16:46;;;;;;;4.17;1.80;;;;;;;;;;5033117;28;20514;-50
2023/07/07 00:19:13;;;;;;;3.40;2.00;;;;;;;;;;5033165;28;20529;-50
2023/07/07 00:21:42;;;;;;;3.67;1.90;;;;;;;;;;5032805;28;20474;-50
2023/07/07 00:24:11;;;;;;;2.87;1.70;;;;;;;;;;5032859;28;20450;-50
2023/07/07 00:26:38;;;;;;;3.97;1.87;;;;;;;;;;5033431;28;20545;-49
2023/07/07 00:29:07;;;;;;;2.83;1.33;;;;;;;;;;5033032;28;20482;-50
2023/07/07 00:31:34;;;;;;;3.27;2.23;;;;;;;;;;5032746;28;20543;-48
2023/07/07 00:34:02;;;;;;;2.53;1.73;;;;;;;;;;5032726;28;20973;-49
2023/07/07 00:36:29;;;;;;;2.83;1.47;;;;;;;;;;5032433;28;20478;-50
2023/07/07 00:38:56;;;;;;;5.37;1.73;;;;;;;;;;5033049;28;20593;-50
2023/07/07 00:41:25;;;;;;;2.93;1.73;;;;;;;;;;5032826;28;20877;-50
2023/07/07 00:44:02;;;;;;;3.73;2.40;;;;;;;;;;5031928;28;20530;-49
2023/07/07 00:46:29;;;;;;;3.87;1.90;;;;;;;;;;5030949;28;20443;-51
2023/07/07 00:48:57;;;;;;;6.00;1.90;;;;;;;;;;5031034;28;20450;-51
2023/07/07 00:51:25;;;;;;;2.93;1.63;;;;;;;;;;5031703;28;20977;-51
2023/07/07 00:53:53;;;;;;;4.30;1.70;;;;;;;;;;5031069;28;20474;-51
2023/07/07 00:56:25;;;;;;;3.30;1.83;;;;;;;;;;5031300;28;20569;-51
2023/07/07 00:58:53;;;;;;;4.03;1.97;;;;;;;;;;5031700;28;20466;-50
2023/07/07 01:01:21;;;;;;;3.23;2.20;;;;;;;;;;5031947;28;20442;-49
2023/07/07 01:03:50;;;;;;;4.30;2.60;;;;;;;;;;5032547;28;20535;-49
2023/07/07 01:06:20;;;;;;;3.37;1.90;;;;;;;;;;5032378;28;20462;-49
2023/07/07 01:08:52;;;;;;;4.50;2.40;;;;;;;;;;5032428;28;20446;-50
2023/07/07 01:11:19;;;;;;;4.43;2.10;;;;;;;;;;5031942;28;20979;-50
2023/07/07 01:13:46;;;;;;;7.00;3.17;;;;;;;;;;5031644;28;20454;-50
2023/07/07 01:16:29;;;;;;;3.70;2.47;;;;;;;;;;5032235;28;20505;-50
2023/07/07 01:19:00;;;;;;;2.53;1.60;;;;;;;;;;5032259;28;20442;-51
2023/07/07 01:21:30;;;;;;;3.40;1.97;;;;;;;;;;5031685;28;20500;-51
2023/07/07 01:24:11;;;;;;;2.70;1.80;;;;;;;;;;5031601;28;20836;-51
2023/07/07 01:26:47;;;;;;;3.40;2.20;;;;;;;;;;5031703;28;20498;-51
2023/07/07 01:29:28;;;;;;;3.30;2.00;;;;;;;;;;5032049;28;20492;-51
2023/07/07 01:31:59;;;;;;;3.20;2.00;;;;;;;;;;5030929;28;20533;-51
2023/07/07 01:34:27;;;;;;;3.47;1.70;;;;;;;;;;5031746;28;20493;-52
2023/07/07 01:36:54;;;;;;;3.97;2.40;;;;;;;;;;5031896;28;20600;-52
2023/07/07 01:39:24;;;;;;;3.40;2.03;;;;;;;;;;5031697;28;20525;-51
2023/07/07 01:41:54;;;;;;;4.17;2.00;;;;;;;;;;5031357;28;20838;-51
2023/07/07 01:44:25;;;;;;;4.00;2.00;;;;;;;;;;5031678;28;20543;-52
2023/07/07 01:46:55;;;;;;;3.80;2.40;;;;;;;;;;5031359;28;20556;-51
2023/07/07 01:49:25;;;;;;;3.90;2.13;;;;;;;;;;5031790;28;20534;-51
2023/07/07 01:51:55;;;;;;;3.30;1.87;;;;;;;;;;5031388;28;20521;-52
2023/07/07 01:54:23;;;;;;;3.40;1.80;;;;;;;;;;5031370;28;20474;-52
2023/07/07 01:56:50;;;;;;;3.97;2.00;;;;;;;;;;5031292;28;20514;-52
2023/07/07 01:59:18;;;;;;;4.40;2.20;;;;;;;;;;5031110;28;20475;-51
2023/07/07 02:01:46;;;;;;;3.20;2.27;;;;;;;;;;5031166;28;20525;-52
2023/07/07 02:04:13;;;;;;;3.63;1.87;;;;;;;;;;5031346;28;20464;-52
2023/07/07 02:06:42;;;;;;;3.50;2.30;;;;;;;;;;5030982;28;20974;-52
2023/07/07 02:09:09;;;;;;;3.93;2.00;;;;;;;;;;5031256;28;21009;-52
2023/07/07 02:11:36;;;;;;;4.40;2.23;;;;;;;;;;5030857;28;20966;-51
2023/07/07 02:14:03;;;;;;;4.50;2.70;;;;;;;;;;5031046;28;20569;-51
2023/07/07 02:16:30;;;;;;;4.23;2.07;;;;;;;;;;5030504;28;20510;-51
2023/07/07 02:18:58;;;;;;;4.00;1.97;;;;;;;;;;5031174;28;20820;-51
2023/07/07 02:21:25;;;;;;;3.90;2.40;;;;;;;;;;5030708;28;20496;-52
2023/07/07 02:23:53;;;;;;;4.73;1.93;;;;;;;;;;5030858;28;20435;-51
2023/07/07 02:26:21;;;;;;;5.60;2.30;;;;;;;;;;5030489;28;20471;-52
2023/07/07 02:28:49;;;;;;;3.97;2.30;;;;;;;;;;5030990;28;20472;-51
2023/07/07 02:31:16;;;;;;;3.33;2.20;;;;;;;;;;5030860;28;20442;-51
2023/07/07 02:33:44;;;;;;;4.07;2.07;;;;;;;;;;5030780;28;20526;-52
2023/07/07 02:36:11;;;;;;;3.67;2.00;;;;;;;;;;5030688;28;20565;-52
2023/07/07 02:38:39;;;;;;;4.60;2.40;;;;;;;;;;5031094;28;20476;-52
2023/07/07 02:41:07;;;;;;;3.40;1.90;;;;;;;;;;5031037;28;20481;-52
2023/07/07 02:43:35;;;;;;;3.50;2.17;;;;;;;;;;5032657;28;20482;-52
2023/07/07 02:46:02;;;;;;;3.40;2.13;;;;;;;;;;5034992;28;20505;-52
2023/07/07 02:48:29;;;;;;;4.10;2.50;;;;;;;;;;5034632;28;20513;-52
2023/07/07 02:50:57;;;;;;;3.70;2.03;;;;;;;;;;5034637;28;20470;-52
2023/07/07 02:53:26;;;;;;;3.80;1.93;;;;;;;;;;5034099;28;20533;-52
2023/07/07 02:55:53;;;;;;;3.30;1.97;;;;;;;;;;5034569;28;20866;-52
2023/07/07 02:58:22;;;;;;;3.80;2.13;;;;;;;;;;5034757;28;20552;-52
2023/07/07 03:00:49;;;;;;;5.00;1.93;;;;;;;;;;5034594;28;20474;-52
2023/07/07 03:03:17;;;;;;;3.67;2.40;;;;;;;;;;5034145;28;20446;-52
2023/07/07 03:05:44;;;;;;;3.77;2.53;;;;;;;;;;5034463;28;20497;-52
2023/07/07 03:08:11;;;;;;;5.17;2.50;;;;;;;;;;5034433;28;20536;-51
2023/07/07 03:10:40;;;;;;;5.13;2.50;;;;;;;;;;5034480;28;20986;-52
2023/07/07 03:13:08;;;;;;;3.70;1.83;;;;;;;;;;5034229;28;20544;-52
2023/07/07 03:15:39;;;;;;;3.80;2.63;;;;;;;;;;5034286;28;20525;-52
2023/07/07 03:18:08;;;;;;;3.87;2.50;;;;;;;;;;5034264;28;20469;-52
2023/07/07 03:20:35;;;;;;;4.27;2.20;;;;;;;;;;5034150;28;20957;-52
2023/07/07 03:23:02;;;;;;;5.07;2.40;;;;;;;;;;5033997;28;20513;-52
2023/07/07 03:25:30;;;;;;;4.50;2.00;;;;;;;;;;5034099;28;21044;-52
2023/07/07 03:27:58;;;;;;;3.70;2.07;;;;;;;;;;5034361;28;20565;-53
2023/07/07 03:30:26;;;;;;;4.67;2.60;;;;;;;;;;5034365;28;20529;-52
2023/07/07 03:32:55;;;;;;;3.70;2.47;;;;;;;;;;5033860;28;20516;-52
2023/07/07 03:35:22;;;;;;;4.43;1.90;;;;;;;;;;5034053;28;20477;-52
2023/07/07 03:37:49;;;;;;;5.03;2.67;;;;;;;;;;5033738;28;20569;-52
2023/07/07 03:40:16;;;;;;;4.47;2.40;;;;;;;;;;5034147;28;20535;-53
2023/07/07 03:42:44;;;;;;;3.57;1.93;;;;;;;;;;5033992;28;20826;-53
2023/07/07 03:45:11;;;;;;;4.20;1.90;;;;;;;;;;5033774;28;20478;-53
2023/07/07 03:47:38;;;;;;;4.53;2.70;;;;;;;;;;5033470;28;20501;-52
2023/07/07 03:50:09;;;;;;;3.90;2.60;;;;;;;;;;5033957;28;20478;-51
2023/07/07 03:52:36;;;;;;;4.73;2.57;;;;;;;;;;5033559;28;20500;-52
2023/07/07 03:55:04;;;;;;;3.27;2.37;;;;;;;;;;5032605;28;20537;-51
2023/07/07 03:57:31;;;;;;;4.60;2.57;;;;;;;;;;5033788;28;20557;-51
2023/07/07 03:59:58;;;;;;;3.67;2.20;;;;;;;;;;5033485;28;20705;-52
2023/07/07 04:02:26;;;;;;;3.77;2.23;;;;;;;;;;5033371;28;20535;-51
2023/07/07 04:04:53;;;;;;;5.50;3.13;;;;;;;;;;5033467;28;20496;-51
2023/07/07 04:07:22;;;;;;;6.00;2.57;;;;;;;;;;5033559;28;20908;-51
2023/07/07 04:09:49;;;;;;;3.13;1.83;;;;;;;;;;5033361;28;20866;-52
2023/07/07 04:12:16;;;;;;;3.83;2.17;;;;;;;;;;5033272;28;20934;-51
2023/07/07 04:14:43;;;;;;;4.90;2.37;;;;;;;;;;5033406;28;20446;-52
2023/07/07 04:17:10;;;;;;;4.00;2.50;;;;;;;;;;5033546;28;20526;-51
2023/07/07 04:19:38;;;;;;;4.60;2.80;;;;;;;;;;5033305;28;20481;-52
2023/07/07 04:22:05;;;;;;;3.80;2.40;;;;;;;;;;5032988;28;20481;-52
2023/07/07 04:24:34;;;;;;;3.90;2.30;;;;;;;;;;5033048;28;20478;-51
2023/07/07 04:27:01;;;;;;;4.40;2.10;;;;;;;;;;5033136;28;20564;-52
2023/07/07 04:29:29;;;;;;;4.97;2.20;;;;;;;;;;5033115;28;20470;-51
2023/07/07 04:31:56;;;;;;;5.83;2.40;;;;;;;;;;5032895;28;20509;-51
2023/07/07 04:34:24;;;;;;;4.27;2.67;;;;;;;;;;5032770;28;20532;-51
2023/07/07 04:36:51;;;;;;;4.60;2.70;;;;;;;;;;5032833;28;20568;-51
2023/07/07 04:39:18;;;;;;;4.53;2.80;;;;;;;;;;5032711;28;20486;-52
2023/07/07 04:41:50;;;;;;;4.10;2.20;;;;;;;;;;5032916;28;20506;-51
2023/07/07 04:44:17;;;;;;;4.10;2.40;;;;;;;;;;5032431;28;21033;-51
2023/07/07 04:46:44;;;;;;;5.10;2.50;;;;;;;;;;5032675;28;20545;-51
2023/07/07 04:49:12;;;;;;;6.90;4.73;;;;;;;;;;5032565;28;20451;-51
2023/07/07 04:51:40;;;;;;;5.40;2.40;;;;;;;;;;5031002;28;20474;-51
2023/07/07 04:54:08;;;;;;;6.83;2.40;;;;;;;;;;5029712;28;20482;-52
2023/07/07 04:56:35;;;;;;;3.97;2.27;;;;;;;;;;5031879;28;20478;-51
2023/07/07 04:59:04;;;;;;;4.40;2.70;;;;;;;;;;5031697;28;20456;-52
2023/07/07 05:01:32;;;;;;;4.17;2.67;;;;;;;;;;5031619;28;20493;-51
2023/07/07 05:04:00;;;;;;;5.10;2.43;;;;;;;;;;5032285;28;20503;-51
2023/07/07 05:06:28;;;;;;;4.23;2.40;;;;;;;;;;5031219;28;20520;-52
2023/07/07 05:08:56;;;;;;;4.43;2.80;;;;;;;;;;5032247;28;20478;-53
2023/07/07 05:11:24;;;;;;;5.10;2.87;;;;;;;;;;5032054;28;20481;-52
2023/07/07 05:13:52;;;;;;;3.77;2.37;;;;;;;;;;5031861;28;20977;-52
2023/07/07 05:16:21;;;;;;;5.50;2.33;;;;;;;;;;5031562;28;20538;-51
2023/07/07 05:18:49;;;;;;;4.43;2.40;;;;;;;;;;5032341;28;20446;-51
2023/07/07 05:21:17;;;;;;;4.20;2.50;;;;;;;;;;5031590;28;20484;-53
2023/07/07 05:23:44;;;;;;;5.80;2.73;;;;;;;;;;5031538;28;20462;-52
2023/07/07 05:26:12;;;;;;;3.87;2.53;;;;;;;;;;5031491;28;20470;-51
2023/07/07 05:28:39;;;;;;;5.37;3.10;;;;;;;;;;5031089;28;20478;-53
2023/07/07 05:31:07;;;;;;;4.43;2.87;;;;;;;;;;5027869;28;20544;-52
2023/07/07 05:33:36;;;;;;;5.93;2.80;;;;;;;;;;5029557;28;20952;-51
2023/07/07 05:36:04;;;;;;;4.07;3.00;;;;;;;;;;5030276;28;20910;-51
2023/07/07 05:38:32;;;;;;;4.70;2.73;;;;;;;;;;5030658;28;20532;-51
2023/07/07 05:40:59;;;;;;;5.17;3.40;;;;;;;;;;5031710;28;20537;-52
2023/07/07 05:43:27;;;;;;;4.87;2.30;;;;;;;;;;5031127;28;20446;-52
2023/07/07 05:45:58;;;;;;;7.57;3.23;;;;;;;;;;5030991;28;20501;-52
2023/07/07 05:48:25;;;;;;;4.47;3.27;;;;;;;;;;5030949;28;20574;-51
2023/07/07 05:50:55;;;;;;;5.57;3.20;;;;;;;;;;5029529;28;20525;-51
2023/07/07 05:53:23;;;;;;;5.33;2.80;;;;;;;;;;5028744;28;20496;-52
2023/07/07 05:55:50;;;;;;;7.00;2.40;;;;;;;;;;5029382;28;20508;-52
2023/07/07 05:58:18;;;;;;;6.23;3.37;;;;;;;;;;5029691;28;20514;-51
2023/07/07 06:00:46;;;;;;;5.43;2.50;;;;;;;;;;5028897;28;20989;-52
2023/07/07 06:03:13;;;;;;;5.83;2.70;;;;;;;;;;5029009;28;20525;-52
2023/07/07 06:05:40;;;;;;;4.93;2.80;;;;;;;;;;5031597;28;20546;-52
2023/07/07 06:08:09;;;;;;;4.60;2.70;;;;;;;;;;5030571;28;20884;-52
2023/07/07 06:10:37;;;;;;;6.67;3.30;;;;;;;;;;5029787;28;20942;-51
2023/07/07 06:13:04;;;;;;;5.50;3.13;;;;;;;;;;5029963;28;20446;-52
2023/07/07 06:15:31;;;;;;;4.33;2.70;;;;;;;;;;5030146;28;20446;-52
2023/07/07 06:17:59;;;;;;;5.60;2.53;;;;;;;;;;5030098;28;20478;-53
2023/07/07 06:20:26;;;;;;;4.70;2.93;;;;;;;;;;5030532;28;20545;-52
2023/07/07 06:22:54;;;;;;;8.97;3.93;;;;;;;;;;5030546;28;20454;-52
2023/07/07 06:25:22;;;;;;;5.43;3.30;;;;;;;;;;5031088;28;20450;-53
2023/07/07 06:27:50;;;;;;;5.30;3.30;;;;;;;;;;5030780;28;20462;-53
2023/07/07 06:30:17;;;;;;;6.23;3.67;;;;;;;;;;5031056;28;20492;-52
2023/07/07 06:32:44;;;;;;;5.90;3.00;;;;;;;;;;5030478;28;20869;-53
2023/07/07 06:35:11;;;;;;;5.13;2.57;;;;;;;;;;5030101;28;20439;-52
2023/07/07 06:37:39;;;;;;;4.50;2.67;;;;;;;;;;5030808;28;20514;-53
2023/07/07 06:40:06;;;;;;;5.57;3.43;;;;;;;;;;5031408;28;20474;-53
2023/07/07 06:42:35;;;;;;;4.57;2.90;;;;;;;;;;5030367;28;20477;-52
2023/07/07 06:45:02;;;;;;;5.90;3.37;;;;;;;;;;5030986;28;20524;-51
2023/07/07 06:47:30;;;;;;;5.00;3.07;;;;;;;;;;5030802;28;20640;-51
2023/07/07 06:49:58;;;;;;;6.47;3.30;;;;;;;;;;5030704;28;20535;-52
2023/07/07 06:52:25;;;;;;;6.60;3.23;;;;;;;;;;5030208;28;20529;-52
2023/07/07 06:54:52;;;;;;;5.70;3.80;;;;;;;;;;5030348;28;20450;-52
2023/07/07 06:57:19;;;;;;;5.40;3.60;;;;;;;;;;5030294;28;20573;-51
2023/07/07 06:59:48;;;;;;;4.77;3.00;;;;;;;;;;5031136;28;20530;-52
2023/07/07 07:02:16;;;;;;;5.83;3.33;;;;;;;;;;5030677;28;20524;-52
2023/07/07 07:04:44;;;;;;;6.47;3.80;;;;;;;;;;5030224;28;20529;-53
2023/07/07 07:07:11;;;;;;;5.20;3.50;;;;;;;;;;5030512;28;20563;-51
2023/07/07 07:09:38;;;;;;;5.63;3.30;;;;;;;;;;5030867;28;20525;-50
2023/07/07 07:12:06;;;;;;;5.13;3.23;;;;;;;;;;5030213;28;20446;-49
2023/07/07 07:14:33;;;;;;;4.50;3.27;;;;;;;;;;5030631;28;20477;-51
2023/07/07 07:17:02;;;;;;;4.67;3.30;;;;;;;;;;5030346;28;20555;-49
2023/07/07 07:19:29;;;;;;;5.37;3.47;;;;;;;;;;5030553;28;20482;-50
2023/07/07 07:21:56;;;;;;;5.30;3.20;;;;;;;;;;5030184;28;20478;-51
2023/07/07 07:24:24;;;;;;;6.37;3.77;;;;;;;;;;5030715;28;20496;-50
2023/07/07 07:26:51;;;;;;;5.60;3.30;;;;;;;;;;5030488;28;20470;-51
2023/07/07 07:29:19;;;;;;;4.80;2.90;;;;;;;;;;5031860;28;20482;-49
2023/07/07 07:31:46;;;;;;;6.50;4.67;;;;;;;;;;5033879;28;20451;-51
2023/07/07 07:34:22;;;;;;;4.20;3.20;;;;;;;;;;5034426;28;20481;-50
2023/07/07 07:36:50;;;;;;;7.20;3.80;;;;;;;;;;5034184;28;20458;-51
2023/07/07 07:39:17;;;;;;;5.60;3.13;;;;;;;;;;5034134;28;20521;-50
2023/07/07 07:41:46;;;;;;;5.80;3.47;;;;;;;;;;5033993;28;20480;-50
2023/07/07 07:44:13;;;;;;;6.17;3.23;;;;;;;;;;5034011;28;20452;-50
2023/07/07 07:46:40;;;;;;;5.63;3.30;;;;;;;;;;5033690;28;20558;-50
2023/07/07 07:49:07;;;;;;;7.23;3.00;;;;;;;;;;5034166;28;20525;-51
2023/07/07 07:51:37;;;;;;;5.20;3.10;;;;;;;;;;5033703;28;20537;-51
2023/07/07 07:54:04;;;;;;;6.70;3.80;;;;;;;;;;5033118;28;20863;-50
2023/07/07 07:56:32;;;;;;;5.10;3.10;;;;;;;;;;5033591;28;20446;-51
2023/07/07 07:59:00;;;;;;;6.10;3.50;;;;;;;;;;5033444;28;20478;-49
2023/07/07 08:01:27;;;;;;;4.97;3.03;;;;;;;;;;5033142;28;20533;-51
2023/07/07 08:03:54;;;;;;;6.40;3.63;;;;;;;;;;5032971;28;20486;-49
2023/07/07 08:06:21;;;;;;;6.13;3.40;;;;;;;;;;5033444;28;20497;-50
2023/07/07 08:08:50;;;;;;;4.17;2.80;;;;;;;;;;5032901;28;20529;-50
2023/07/07 08:11:20;;;;;;;5.53;3.67;;;;;;;;;;5033424;28;20532;-48
2023/07/07 08:13:47;;;;;;;5.50;3.20;;;;;;;;;;5033018;28;20541;-49
2023/07/07 08:16:14;;;;;;;6.17;3.40;;;;;;;;;;5033043;28;20442;-49
2023/07/07 08:18:42;;;;;;;6.23;3.57;;;;;;;;;;5033372;28;20474;-50
2023/07/07 08:21:09;;;;;;;5.37;3.20;;;;;;;;;;5033273;28;20536;-49
2023/07/07 08:23:36;;;;;;;4.23;2.80;;;;;;;;;;5032677;28;20862;-51
2023/07/07 08:26:05;;;;;;;5.50;3.60;;;;;;;;;;5032883;28;20530;-50
2023/07/07 08:28:32;;;;;;;6.13;3.90;;;;;;;;;;5033132;28;20552;-50
2023/07/07 08:30:59;;;;;;;5.30;3.37;;;;;;;;;;5033216;28;20533;-50
2023/07/07 08:33:26;;;;;;;5.80;3.83;;;;;;;;;;5032623;28;20599;-50
2023/07/07 08:35:54;;;;;;;5.00;3.60;;;;;;;;;;5031586;28;20504;-49
2023/07/07 08:38:21;;;;;;;4.63;3.00;;;;;;;;;;5031816;28;20557;-50
2023/07/07 08:40:49;;;;;;;6.87;3.43;;;;;;;;;;5031313;28;20446;-51
2023/07/07 08:43:18;;;;;;;5.13;3.87;;;;;;;;;;5032298;28;20521;-50
2023/07/07 08:45:48;;;;;;;4.87;2.90;;;;;;;;;;5032367;28;20525;-49
2023/07/07 08:48:19;;;;;;;6.10;3.87;;;;;;;;;;5032220;28;21049;-50
2023/07/07 08:50:50;;;;;;;5.93;3.33;;;;;;;;;;5033031;28;20529;-51
2023/07/07 08:53:30;;;;;;;5.47;3.53;;;;;;;;;;5031666;28;20989;-50
2023/07/07 08:56:01;;;;;;;5.27;3.50;;;;;;;;;;5032579;28;20491;-50
2023/07/07 08:58:33;;;;;;;5.97;3.80;;;;;;;;;;5032195;28;20863;-49
2023/07/07 09:01:12;;;;;;;5.70;3.30;;;;;;;;;;5032421;28;20958;-49
2023/07/07 09:03:47;;;;;;;6.63;3.63;;;;;;;;;;5031559;28;20538;-50
2023/07/07 09:06:20;;;;;;;5.63;3.97;;;;;;;;;;5032510;28;20438;-49
2023/07/07 09:08:52;;;;;;;6.53;3.70;;;;;;;;;;5031797;28;20470;-50
2023/07/07 09:11:24;;;;;;;5.20;3.60;;;;;;;;;;5032300;28;20481;-49
2023/07/07 09:13:55;;;;;;;6.77;3.37;;;;;;;;;;5031924;28;20900;-48
2023/07/07 09:16:24;;;;;;;6.20;3.73;;;;;;;;;;5032036;28;20543;-49
2023/07/07 09:18:58;;;;;;;5.43;3.60;;;;;;;;;;5032425;28;20561;-50
2023/07/07 09:21:31;;;;;;;5.80;4.23;;;;;;;;;;5032098;28;20536;-48
2023/07/07 09:24:00;;;;;;;5.83;3.73;;;;;;;;;;5031762;28;20521;-49
2023/07/07 09:26:30;;;;;;;5.77;3.60;;;;;;;;;;5031894;28;20533;-49
2023/07/07 09:28:59;;;;;;;5.30;3.37;;;;;;;;;;5031915;28;20438;-49
2023/07/07 09:31:32;;;;;;;6.30;4.10;;;;;;;;;;5031754;28;20537;-51
2023/07/07 09:34:02;;;;;;;6.03;3.80;;;;;;;;;;5031952;28;20531;-50
2023/07/07 09:36:31;;;;;;;8.27;5.53;;;;;;;;;;5031920;28;20446;-50
2023/07/07 09:39:03;;;;;;;5.03;3.20;;;;;;;;;;5031820;28;20532;-50
2023/07/07 09:41:35;;;;;;;5.43;4.33;;;;;;;;;;5031771;28;20465;-51
2023/07/07 09:44:26;;;;;;;6.33;3.87;;;;;;;;;;5031768;28;20969;-51
2023/07/07 09:46:58;;;;;;;4.97;3.63;;;;;;;;;;5030069;28;20517;-50
2023/07/07 09:49:28;;;;;;;6.43;4.00;;;;;;;;;;5030117;28;20474;-49
2023/07/07 09:51:59;;;;;;;5.40;3.53;;;;;;;;;;5030163;28;20450;-49
2023/07/07 09:54:27;;;;;;;7.10;4.30;;;;;;;;;;5030930;28;20450;-49
2023/07/07 09:56:56;;;;;;;5.43;3.90;;;;;;;;;;5030963;28;20551;-49
2023/07/07 09:59:27;;;;;;;5.50;4.07;;;;;;;;;;5030896;28;20514;-50
2023/07/07 10:01:56;;;;;;;5.20;3.40;;;;;;;;;;5030981;28;20470;-50
2023/07/07 10:04:24;;;;;;;4.97;3.17;;;;;;;;;;5031084;28;20478;-50
2023/07/07 10:06:54;;;;;;;4.60;3.23;;;;;;;;;;5030874;28;20520;-49
2023/07/07 10:09:21;;;;;;;6.03;4.30;;;;;;;;;;5031306;28;20529;-50
2023/07/07 10:11:48;;;;;;;6.10;4.07;;;;;;;;;;5031165;28;20525;-50
2023/07/07 10:14:17;;;;;;;4.83;3.10;;;;;;;;;;5031355;28;21035;-50
2023/07/07 10:16:52;;;;;;;6.13;3.90;;;;;;;;;;5031053;28;20494;-51
2023/07/07 10:19:20;;;;;;;6.80;4.30;;;;;;;;;;5031128;28;20565;-51
2023/07/07 10:21:48;;;;;;;5.83;3.80;;;;;;;;;;5030720;28;20446;-50
2023/07/07 10:24:16;;;;;;;5.27;3.83;;;;;;;;;;5031152;28;20529;-50
2023/07/07 10:26:47;;;;;;;5.40;3.87;;;;;;;;;;5030972;28;20541;-51
2023/07/07 10:29:16;;;;;;;5.97;3.77;;;;;;;;;;5031840;28;20435;-50
2023/07/07 10:31:44;;;;;;;4.70;3.40;;;;;;;;;;5028019;28;20442;-50
2023/07/07 10:34:22;;;;;;;4.77;3.37;;;;;;;;;;5021301;28;20534;-50
2023/07/07 10:36:50;;;;;;;7.73;5.00;;;;;;;;;;5021196;28;20483;-51
2023/07/07 10:39:17;;;;;;;6.50;3.50;;;;;;;;;;5021511;28;20469;-48
2023/07/07 10:41:44;;;;;;;5.40;3.70;;;;;;;;;;5028921;28;20508;-49
2023/07/07 10:44:11;;;;;;;5.03;3.50;;;;;;;;;;5029283;28;20470;-48
2023/07/07 10:46:39;;;;;;;7.17;4.13;;;;;;;;;;5028566;28;20454;-50
2023/07/07 10:49:06;;;;;;;5.40;3.60;;;;;;;;;;5029126;28;20517;-49
2023/07/07 10:51:37;;;;;;;6.53;3.77;;;;;;;;;;5028743;28;20525;-50
2023/07/07 10:54:08;;;;;;;7.03;4.40;;;;;;;;;;5029848;28;20470;-50
2023/07/07 10:56:38;;;;;;;5.10;3.70;;;;;;;;;;5030209;28;20559;-50
2023/07/07 10:59:26;;;;;;;7.10;4.23;;;;;;;;;;5030592;28;20565;-50
2023/07/07 11:01:59;;;;;;;5.00;3.20;;;;;;;;;;5029951;28;20478;-50
2023/07/07 11:04:35;;;;;;;6.50;4.10;;;;;;;;;;5030938;28;20439;-49
2023/07/07 11:07:14;;;;;;;5.47;4.00;;;;;;;;;;5034306;28;20589;-49
2023/07/07 11:09:49;;;;;;;7.43;4.60;;;;;;;;;;5034619;28;20438;-51
2023/07/07 11:12:22;;;;;;;5.10;3.50;;;;;;;;;;5034123;28;20480;-50
2023/07/07 11:14:56;;;;;;;6.30;3.73;;;;;;;;;;5033989;28;20521;-49
2023/07/07 11:17:31;;;;;;;5.47;3.80;;;;;;;;;;5032801;28;20551;-50
2023/07/07 11:20:08;;;;;;;5.73;3.73;;;;;;;;;;5032759;28;20485;-50
2023/07/07 11:22:47;;;;;;;7.07;4.43;;;;;;;;;;5032815;28;20478;-50
2023/07/07 11:25:20;;;;;;;5.40;3.77;;;;;;;;;;5033820;28;20541;-50
2023/07/07 11:27:54;;;;;;;5.87;3.83;;;;;;;;;;5033883;28;20484;-48
2023/07/07 11:30:24;;;;;;;6.43;4.20;;;;;;;;;;5034098;28;20442;-49
2023/07/07 11:32:58;;;;;;;6.10;3.60;;;;;;;;;;5033837;28;20438;-49
2023/07/07 11:35:31;;;;;;;6.40;4.10;;;;;;;;;;5033904;28;20541;-48
2023/07/07 11:38:07;;;;;;;5.30;3.57;;;;;;;;;;5033813;28;20490;-49
2023/07/07 11:40:49;;;;;;;5.60;3.67;;;;;;;;;;5034317;28;20476;-48
2023/07/07 11:43:22;;;;;;;6.13;3.70;;;;;;;;;;5033853;28;20438;-48
2023/07/07 11:46:01;;;;;;;6.37;3.73;;;;;;;;;;5033818;28;20470;-48
2023/07/07 11:48:34;;;;;;;5.80;4.37;;;;;;;;;;5065859;22;20513;-86
2023/07/07 11:51:06;;;;;;;6.03;3.40;;;;;;;;;;5036265;28;20484;-86
2023/07/07 11:53:47;;;;;;;6.17;3.87;;;;;;;;;;5035498;28;20438;-86
2023/07/07 11:56:22;;;;;;;7.17;4.07;;;;;;;;;;5036578;28;20537;-85
2023/07/07 11:58:55;;;;;;;6.80;4.40;;;;;;;;;;5037076;28;20980;-86
2023/07/07 12:01:24;;;;;;;13.63;4.70;;;;;;;;;;5066445;22;21017;-50
2023/07/07 12:03:54;;;;;;;6.87;4.70;;;;;;;;;;5053200;28;20495;-51
2023/07/07 12:06:26;;;;;;;8.03;4.00;;;;;;;;;;5053594;28;20548;-50
2023/07/07 12:09:00;;;;;;;5.30;3.50;;;;;;;;;;5034998;28;20497;-50
2023/07/07 12:11:29;;;;;;;8.83;5.40;;;;;;;;;;5032935;28;20529;-50
2023/07/07 12:14:18;;;;;;;9.27;4.20;;;;;;;;;;5033279;28;20474;-50
2023/07/07 12:16:45;;;;;;;5.37;3.50;;;;;;;;;;5026037;28;20530;-51
2023/07/07 12:19:18;;;;;;;7.20;4.50;;;;;;;;;;5033376;28;20489;-51
2023/07/07 12:21:47;;;;;;;7.80;4.30;;;;;;;;;;5033635;28;20526;-51
2023/07/07 12:24:20;;;;;;;5.40;4.30;;;;;;;;;;5033080;28;20469;-50
2023/07/07 12:26:50;;;;;;;6.90;4.10;;;;;;;;;;5033118;28;20967;-50
2023/07/07 12:29:18;;;;;;;7.43;3.50;;;;;;;;;;5033281;28;20525;-51
2023/07/07 12:31:47;;;;;;;4.80;3.70;;;;;;;;;;5032867;28;20531;-50
2023/07/07 12:34:36;;;;;;;10.23;3.93;;;;;;;;;;5032945;28;20445;-51
2023/07/07 12:37:04;;;;;;;9.23;4.40;;;;;;;;;;5033031;28;20466;-50
2023/07/07 12:39:32;;;;;;;6.57;4.80;;;;;;;;;;5032860;28;20521;-50
2023/07/07 12:42:00;;;;;;;7.13;4.60;;;;;;;;;;5032945;28;20529;-49
2023/07/07 12:44:27;;;;;;;9.03;4.13;;;;;;;;;;5033003;28;20470;-50
2023/07/07 12:46:54;;;;;;;5.73;3.40;;;;;;;;;;5033025;28;20466;-50
2023/07/07 12:49:24;;;;;;;6.40;4.00;;;;;;;;;;5032657;28;20938;-50
2023/07/07 12:51:55;;;;;;;7.57;4.13;;;;;;;;;;5032608;28;20442;-51
2023/07/07 12:54:33;;;;;;;4.97;3.77;;;;;;;;;;5032281;28;20438;-51
2023/07/07 12:57:01;;;;;;;7.40;3.70;;;;;;;;;;5032875;28;20545;-51
2023/07/07 12:59:36;;;;;;;5.23;3.63;;;;;;;;;;5032320;28;20510;-50
2023/07/07 13:02:11;;;;;;;11.90;4.03;;;;;;;;;;5031932;28;20460;-51
2023/07/07 13:04:41;;;;;;;5.70;3.43;;;;;;;;;;5032286;28;20446;-50
2023/07/07 13:07:19;;;;;;;7.40;4.70;;;;;;;;;;5032470;28;20906;-50
2023/07/07 13:09:49;;;;;;;7.07;4.40;;;;;;;;;;5032489;28;20462;-50
2023/07/07 13:12:34;;;;;;;4.90;3.40;;;;;;;;;;5032035;28;20644;-50
2023/07/07 13:15:04;;;;;;;6.20;3.60;;;;;;;;;;5016411;28;20533;-50
2023/07/07 13:17:31;;;;;;;5.30;3.70;;;;;;;;;;5031534;28;20454;-50
2023/07/07 13:20:00;;;;;;;5.10;3.67;;;;;;;;;;5031943;28;21004;-50
2023/07/07 13:22:29;;;;;;;4.87;3.40;;;;;;;;;;5031408;28;20465;-51
2023/07/07 13:24:58;;;;;;;7.03;4.20;;;;;;;;;;5031566;28;20845;-50
2023/07/07 13:27:26;;;;;;;6.50;3.70;;;;;;;;;;5031026;28;20493;-50
2023/07/07 13:29:57;;;;;;;5.73;4.00;;;;;;;;;;5031739;28;21026;-51
2023/07/07 13:32:28;;;;;;;6.03;3.80;;;;;;;;;;5031230;28;20890;-51
2023/07/07 13:34:55;;;;;;;8.20;4.37;;;;;;;;;;5031608;28;20469;-50
2023/07/07 13:37:23;;;;;;;6.17;3.90;;;;;;;;;;5031716;28;20884;-51
2023/07/07 13:39:51;;;;;;;7.50;4.40;;;;;;;;;;5031498;28;20481;-51
2023/07/07 13:42:24;;;;;;;5.07;3.80;;;;;;;;;;5028377;28;20946;-50
2023/07/07 13:44:55;;;;;;;10.33;4.07;;;;;;;;;;5031190;28;20926;-51
2023/07/07 13:47:24;;;;;;;5.90;3.67;;;;;;;;;;5028940;28;20541;-51
2023/07/07 13:49:53;;;;;;;6.83;3.63;;;;;;;;;;5031949;28;20447;-51
2023/07/07 13:52:21;;;;;;;5.27;3.77;;;;;;;;;;5031572;28;20870;-49
2023/07/07 13:54:49;;;;;;;6.13;3.70;;;;;;;;;;5031158;28;20485;-51
2023/07/07 13:57:20;;;;;;;5.30;3.40;;;;;;;;;;5031511;28;20553;-50
2023/07/07 13:59:49;;;;;;;5.70;3.67;;;;;;;;;;5031364;28;20947;-49
2023/07/07 14:02:17;;;;;;;6.20;3.30;;;;;;;;;;5031440;28;20525;-50
2023/07/07 14:04:46;;;;;;;4.90;3.70;;;;;;;;;;5031563;28;20446;-49
2023/07/07 14:07:16;;;;;;;6.70;2.73;;;;;;;;;;5031440;28;20501;-51
2023/07/07 14:09:44;;;;;;;5.50;3.53;;;;;;;;;;5030101;28;20474;-50
2023/07/07 14:12:12;;;;;;;5.30;3.60;;;;;;;;;;5030724;28;20469;-49
2023/07/07 14:14:40;;;;;;;6.20;3.43;;;;;;;;;;5031201;28;20470;-49
2023/07/07 14:17:13;;;;;;;5.20;3.20;;;;;;;;;;5030544;28;20549;-49
2023/07/07 14:19:45;;;;;;;6.63;3.90;;;;;;;;;;5031496;28;20494;-50
2023/07/07 14:22:12;;;;;;;6.60;3.93;;;;;;;;;;5030799;28;20958;-50
2023/07/07 14:24:40;;;;;;;5.00;3.30;;;;;;;;;;5031111;28;20478;-49
2023/07/07 14:27:13;;;;;;;5.17;3.20;;;;;;;;;;5030918;28;20997;-51
2023/07/07 14:29:41;;;;;;;7.23;3.97;;;;;;;;;;5031166;28;20466;-50
2023/07/07 14:32:14;;;;;;;5.40;3.37;;;;;;;;;;5030782;28;20496;-50
2023/07/07 14:34:45;;;;;;;5.20;3.57;;;;;;;;;;5030496;28;20691;-50
2023/07/07 14:37:18;;;;;;;4.83;3.23;;;;;;;;;;5021757;28;20492;-49
2023/07/07 14:39:48;;;;;;;6.23;3.80;;;;;;;;;;5028064;28;20561;-49
2023/07/07 14:42:19;;;;;;;4.57;3.17;;;;;;;;;;5025034;28;20442;-50
2023/07/07 14:44:47;;;;;;;6.23;3.70;;;;;;;;;;5024637;28;20443;-49
2023/07/07 14:47:18;;;;;;;6.00;3.00;;;;;;;;;;5025077;28;20549;-49
2023/07/07 14:49:45;;;;;;;4.80;3.47;;;;;;;;;;5024290;28;20442;-51
2023/07/07 14:52:16;;;;;;;5.50;3.60;;;;;;;;;;5031146;28;20541;-51
2023/07/07 14:54:43;;;;;;;6.50;3.73;;;;;;;;;;5030949;28;20887;-49
2023/07/07 14:57:15;;;;;;;5.50;3.60;;;;;;;;;;5031300;28;20550;-49